This is the latest recevied weather packets stored in our database for station/object AE0NK. If no packets are shown the sender has not sent any weather packets the latest 1 day(s).
| Time | Temp. | Humidity | Pressure | Rain* | Wind** | Luminosity | Snow |
|---|---|---|---|---|---|---|---|
| 1778004496 | 12.78° C | 37% | 1011.7 hPa | 0 mm | 2.68 m/s, 242° | 294 W/m² | - |
| 1778004194 | 12.78° C | 40% | 1011.7 hPa | 0 mm | 0.89 m/s, 281° | 279 W/m² | - |
| 1778003910 | 12.78° C | 38% | 1011.6 hPa | 0 mm | 0.89 m/s, 221° | 285 W/m² | - |
| 1778003606 | 12.22° C | 38% | 1011.6 hPa | 0 mm | 1.34 m/s, 279° | 281 W/m² | - |
| 1778003302 | 12.78° C | 39% | 1011.7 hPa | 0 mm | 2.68 m/s, 317° | 272 W/m² | - |
| 1778003000 | 12.78° C | 40% | 1011.6 hPa | 0 mm | 0.89 m/s, 35° | 272 W/m² | - |
| 1778002718 | 12.78° C | 39% | 1011.6 hPa | 0 mm | 0.89 m/s, 336° | 339 W/m² | - |
| 1778002409 | 12.78° C | 37% | 1011.7 hPa | 0 mm | 1.34 m/s, 17° | 309 W/m² | - |
| 1778002110 | 13.33° C | 40% | 1011.8 hPa | 0 mm | 0.89 m/s, 239° | 476 W/m² | - |
| 1778001808 | 13.33° C | 42% | 1011.6 hPa | 0 mm | 0.45 m/s, 345° | 415 W/m² | - |
| 1778001505 | 12.78° C | 38% | 1011.6 hPa | 0 mm | 1.34 m/s, 360° | 475 W/m² | - |
| 1778001201 | 12.22° C | 39% | 1011.8 hPa | 0 mm | 0.89 m/s, 355° | 591 W/m² | - |
| 1778000900 | 12.22° C | 36% | 1011.7 hPa | 0 mm | 2.68 m/s, 292° | 341 W/m² | - |
| 1778000598 | 12.78° C | 38% | 1011.7 hPa | 0 mm | 0.89 m/s, 298° | 554 W/m² | - |
| 1778000294 | 12.22° C | 37% | 1011.7 hPa | 0 mm | 1.34 m/s, 258° | 517 W/m² | - |
| 1777999992 | 12.78° C | 35% | 1011.7 hPa | 0 mm | 2.68 m/s, 292° | 501 W/m² | - |
| 1777999710 | 12.78° C | 38% | 1011.7 hPa | 0 mm | 0.89 m/s, 303° | 566 W/m² | - |
| 1777999408 | 12.22° C | 36% | 1011.6 hPa | 0 mm | 2.24 m/s, 284° | 670 W/m² | - |
| 1777999108 | 12.22° C | 35% | 1011.4 hPa | 0 mm | 2.24 m/s, 319° | 633 W/m² | - |
| 1777998807 | 12.22° C | 37% | 1011.6 hPa | 0 mm | 2.68 m/s, 282° | 670 W/m² | - |
| 1777998505 | 12.22° C | 34% | 1011.6 hPa | 0 mm | 1.34 m/s, 202° | 434 W/m² | - |
| 1777998203 | 12.78° C | 39% | 1011.5 hPa | 0 mm | 0.45 m/s, 52° | 504 W/m² | - |
| 1777997900 | 12.22° C | 37% | 1011.4 hPa | 0 mm | 1.79 m/s, 318° | 524 W/m² | - |
| 1777997598 | 11.67° C | 39% | 1011.4 hPa | 0 mm | 1.34 m/s, 292° | 487 W/m² | - |
| 1777997297 | 11.67° C | 39% | 1011.3 hPa | 0 mm | 0.45 m/s, 27° | 417 W/m² | - |
* Rain latest hour (hover to see other rain measurements)
** Current wind speed in m/s (hover to see current wind gust speed)